Airfield :
LOGIN :

Register | Disclaimer

   EN    FR    IT 

 










Legend :    VFR   Marginal VFR   IFR   Intensive IFR   Very Intensive IFR
Visi :
Ceiling :
>= 8 km
>= 3000ft
5 to 8 km
1000 to 3000 ft
1500m to 5 km
500 to 1000 ft
800 to 1500m
200 to 500 ft
< 800m
< 200 ft
Symbols :   Thunderstorms  Fog  Heavy snow  Heavy precipitations  Wind > 20 kt
SIGMETs :     Misc.  Thunderstorms  Icing  Turbulence  Mountain Waves  Volcanic Ashes






- Airport Elevation : 2059 ft
- IATA code : KZI


LGKZ - Filippos

CURRENT METAR :
  • 040050Z AUTO 16004KT 120V220 //// // ////// 07/07 Q1013 RE//

EXPIRED METARs :
  • 040020Z AUTO VRB03KT //// // ////// 07/06 Q1013 RE//
  • 032350Z AUTO VRB03KT //// -RA ////// 07/06 Q1013 RE//
  • 032320Z AUTO VRB03KT //// // ////// 07/07 Q1013 RE//
  • 032250Z AUTO 13005KT 070V140 //// // ////// 07/07 Q1013 RE//

TAF N/A



MET'MAP, your aeronautical weather chart ! - Copyright ORBIFLY December 2007 - Disclaimer

ORBIFLY MET'MAP TEAM :

Programming & Development : Alexandra Zaïnal
Concept & original design : Baudouin d'Aumeries
Assistance for programming : Marc-Olivier Méhu
Technical & hardware support : Manuel Goepfert

Contact : metmap@orbifly.com




SOURCES & CREDITS :

   NOAA